createdAt,value
2024-03-01T00:01:04.701Z,72.73
2024-03-01T00:03:54.812Z,72.81
2024-03-01T00:06:31.829Z,72.91
2024-03-01T00:09:08.550Z,72.93
2024-03-01T00:11:45.578Z,72.92
2024-03-01T00:14:22.217Z,72.72
2024-03-01T00:16:58.735Z,72.75
2024-03-01T00:19:35.376Z,72.73
2024-03-01T00:22:12.167Z,72.80
2024-03-01T00:24:50.712Z,72.78
2024-03-01T00:27:27.273Z,72.74
2024-03-01T00:30:04.397Z,72.66
2024-03-01T00:32:41.706Z,72.51
2024-03-01T00:35:15.427Z,72.31
2024-03-01T00:37:52.009Z,72.33
2024-03-01T00:40:29.143Z,72.23
2024-03-01T00:43:05.578Z,72.17
2024-03-01T00:45:42.906Z,72.12
2024-03-01T00:48:20.684Z,72.05
2024-03-01T00:50:57.269Z,71.98
2024-03-01T00:53:33.923Z,71.92
2024-03-01T00:56:12.239Z,71.83
2024-03-01T00:58:48.899Z,71.73
2024-03-01T01:01:25.411Z,71.88
2024-03-01T01:04:02.359Z,71.89
2024-03-01T01:06:39.098Z,72.01
2024-03-01T01:09:15.725Z,71.97
2024-03-01T01:11:52.411Z,72.11
2024-03-01T01:14:29.089Z,72.10
2024-03-01T01:17:05.747Z,72.10
2024-03-01T01:19:42.852Z,72.21
2024-03-01T01:22:21.124Z,72.43
2024-03-01T01:24:57.920Z,72.51
2024-03-01T01:27:34.612Z,72.73
2024-03-01T01:30:13.151Z,72.81
2024-03-01T01:32:49.736Z,72.75
2024-03-01T01:35:26.907Z,72.75
2024-03-01T01:38:04.190Z,72.86
2024-03-01T01:40:42.117Z,72.86
2024-03-01T01:43:18.735Z,72.98
2024-03-01T01:45:56.668Z,73.01
2024-03-01T01:48:33.427Z,73.10
2024-03-01T01:51:11.498Z,72.93
2024-03-01T01:53:49.558Z,72.88
2024-03-01T01:56:26.229Z,72.83
2024-03-01T01:59:02.973Z,72.86
2024-03-01T02:01:40.321Z,72.89
2024-03-01T02:04:14.315Z,73.07
2024-03-01T02:06:50.963Z,73.22
2024-03-01T02:09:27.578Z,73.18
2024-03-01T02:12:04.300Z,73.42
2024-03-01T02:14:41.058Z,73.19
2024-03-01T02:17:17.530Z,73.34
2024-03-01T02:19:54.097Z,73.60
2024-03-01T02:22:32.167Z,73.64
2024-03-01T02:25:09.121Z,73.68
2024-03-01T02:27:45.865Z,73.75
2024-03-01T02:30:22.917Z,74.17
2024-03-01T02:32:59.594Z,74.35
2024-03-01T02:35:36.209Z,74.63
2024-03-01T02:38:12.780Z,74.63
2024-03-01T02:40:49.947Z,74.57
2024-03-01T02:43:26.432Z,74.36
2024-03-01T02:46:02.860Z,74.27
2024-03-01T02:48:39.828Z,74.31
2024-03-01T02:51:16.299Z,74.26
2024-03-01T02:53:52.818Z,74.26
2024-03-01T02:56:29.385Z,74.44
2024-03-01T02:59:06.123Z,74.38
2024-03-01T03:01:42.861Z,74.12
2024-03-01T03:04:19.737Z,74.20
2024-03-01T03:06:59.237Z,74.24
2024-03-01T03:09:36.187Z,74.16
2024-03-01T03:12:13.580Z,74.26
2024-03-01T03:14:50.284Z,74.02
2024-03-01T03:17:27.150Z,74.16
2024-03-01T03:20:11.440Z,74.09
2024-03-01T03:22:50.487Z,74.03
2024-03-01T03:25:27.374Z,73.98
2024-03-01T03:28:04.016Z,73.87
2024-03-01T03:30:40.599Z,73.93
2024-03-01T03:33:16.955Z,73.96
2024-03-01T03:35:53.570Z,74.05
2024-03-01T03:38:30.598Z,74.18
2024-03-01T03:41:10.144Z,74.35
2024-03-01T03:43:46.946Z,74.22
2024-03-01T03:46:23.767Z,74.24
2024-03-01T03:49:00.360Z,74.25
2024-03-01T03:51:38.830Z,74.03
2024-03-01T03:54:17.486Z,73.92
2024-03-01T03:56:54.733Z,73.93
2024-03-01T03:59:31.413Z,73.89
2024-03-01T04:02:07.982Z,74.02
2024-03-01T04:04:44.659Z,74.00
2024-03-01T04:07:21.480Z,73.79
2024-03-01T04:09:57.989Z,73.66
2024-03-01T04:12:34.618Z,73.68
2024-03-01T04:15:12.300Z,73.69
2024-03-01T04:17:49.823Z,73.74
2024-03-01T04:20:23.326Z,73.86
2024-03-01T04:23:00.896Z,73.79
2024-03-01T04:25:38.464Z,73.90
2024-03-01T04:28:12.650Z,74.06
2024-03-01T04:30:49.671Z,73.89
2024-03-01T04:33:26.923Z,73.78
2024-03-01T04:36:03.505Z,73.61
2024-03-01T04:38:41.424Z,73.62
2024-03-01T04:41:23.536Z,73.70
2024-03-01T04:44:00.061Z,73.69
2024-03-01T04:46:36.739Z,73.66
2024-03-01T04:49:13.452Z,73.61
2024-03-01T04:51:50.053Z,73.65
2024-03-01T04:54:26.749Z,73.79
2024-03-01T04:57:07.481Z,73.84
2024-03-01T04:59:44.129Z,73.82
2024-03-01T05:02:20.865Z,73.75
2024-03-01T05:04:58.127Z,73.87
2024-03-01T05:07:32.167Z,73.98
2024-03-01T05:10:10.669Z,73.90
2024-03-01T05:12:48.537Z,73.76
2024-03-01T05:15:25.260Z,73.64
2024-03-01T05:18:01.947Z,73.72
2024-03-01T05:20:38.903Z,73.72
2024-03-01T05:23:15.565Z,73.61
2024-03-01T05:25:53.598Z,73.75
2024-03-01T05:28:30.248Z,73.76
2024-03-01T05:31:18.904Z,73.75
2024-03-01T05:34:00.006Z,73.68
2024-03-01T05:36:37.140Z,73.65
2024-03-01T05:39:20.254Z,73.70
2024-03-01T05:41:56.979Z,73.55
2024-03-01T05:44:33.670Z,73.41
2024-03-01T05:47:10.825Z,73.45
2024-03-01T05:49:47.562Z,73.43
2024-03-01T05:52:23.918Z,73.46
2024-03-01T05:55:00.599Z,73.57
2024-03-01T05:57:37.498Z,73.49
2024-03-01T06:00:26.635Z,73.61
2024-03-01T06:03:03.569Z,73.69
2024-03-01T06:05:40.057Z,73.67
2024-03-01T06:08:16.687Z,73.77
2024-03-01T06:10:53.755Z,73.86
2024-03-01T06:13:30.558Z,73.88
2024-03-01T06:16:07.271Z,73.73
2024-03-01T06:18:44.763Z,73.79
2024-03-01T06:21:26.938Z,73.86
2024-03-01T06:24:03.581Z,73.89
2024-03-01T06:26:40.031Z,74.09
2024-03-01T06:29:16.886Z,74.09
2024-03-01T06:31:53.446Z,74.10
2024-03-01T06:34:30.640Z,74.12
2024-03-01T06:37:04.989Z,74.26
2024-03-01T06:39:42.173Z,74.22
2024-03-01T06:42:18.624Z,74.09
2024-03-01T06:44:55.124Z,74.18
2024-03-01T06:47:35.523Z,74.26
2024-03-01T06:50:13.848Z,74.34
2024-03-01T06:52:50.589Z,74.49
2024-03-01T06:55:27.697Z,74.44
2024-03-01T06:58:04.503Z,74.48
2024-03-01T07:00:46.153Z,74.62
2024-03-01T07:03:23.488Z,74.77
2024-03-01T07:06:00.388Z,74.94
2024-03-01T07:08:36.974Z,75.04
2024-03-01T07:11:14.066Z,75.08
2024-03-01T07:13:50.519Z,75.24
2024-03-01T07:16:27.278Z,75.29
2024-03-01T07:19:04.001Z,75.53
2024-03-01T07:21:40.693Z,75.69
2024-03-01T07:24:17.403Z,75.79
2024-03-01T07:26:53.936Z,75.87
2024-03-01T07:29:30.344Z,75.97
2024-03-01T07:32:07.352Z,76.29
2024-03-01T07:34:43.988Z,76.42
2024-03-01T07:37:20.605Z,76.70
2024-03-01T07:39:58.562Z,76.83
2024-03-01T07:42:35.905Z,77.03
2024-03-01T07:45:14.747Z,77.14
2024-03-01T07:47:51.963Z,77.12
2024-03-01T07:50:28.420Z,77.19
2024-03-01T07:53:05.173Z,77.18
2024-03-01T07:55:41.915Z,77.27
2024-03-01T07:58:20.017Z,77.53
2024-03-01T08:00:57.730Z,77.50
2024-03-01T08:03:34.541Z,77.48
2024-03-01T08:06:11.601Z,77.54
2024-03-01T08:08:52.178Z,77.46
2024-03-01T08:11:41.642Z,77.72
2024-03-01T08:14:30.196Z,77.89
2024-03-01T08:17:09.772Z,77.96
2024-03-01T08:19:49.767Z,77.89
2024-03-01T08:22:27.313Z,77.93
2024-03-01T08:25:08.332Z,78.08
2024-03-01T08:27:44.907Z,78.05
2024-03-01T08:30:44.066Z,78.12
2024-03-01T08:33:23.897Z,78.12
2024-03-01T08:36:01.024Z,78.73
2024-03-01T08:39:13.010Z,78.94
2024-03-01T08:41:50.943Z,79.07
2024-03-01T08:45:01.185Z,79.52
2024-03-01T08:47:39.951Z,79.60
2024-03-01T08:50:46.876Z,79.84
2024-03-01T08:53:47.790Z,80.04
2024-03-01T08:56:26.089Z,80.00
2024-03-01T08:59:04.120Z,80.13
2024-03-01T09:01:54.694Z,80.30
2024-03-01T09:04:39.819Z,80.83
2024-03-01T09:07:25.163Z,80.51
2024-03-01T09:10:02.973Z,80.41
2024-03-01T09:12:39.930Z,80.37
2024-03-01T09:15:18.194Z,80.34
2024-03-01T09:17:55.660Z,80.18
2024-03-01T09:20:38.338Z,80.05
2024-03-01T09:23:20.481Z,80.04
2024-03-01T09:26:14.263Z,79.95
2024-03-01T09:28:51.495Z,79.80
2024-03-01T09:31:28.387Z,79.18
2024-03-01T09:34:06.164Z,78.97
2024-03-01T09:36:42.981Z,78.63
2024-03-01T09:39:19.780Z,78.17
2024-03-01T09:42:07.726Z,77.87
2024-03-01T09:44:58.275Z,77.73
2024-03-01T09:47:50.657Z,77.56
2024-03-01T09:50:42.928Z,77.14
2024-03-01T09:53:33.815Z,76.96
2024-03-01T09:56:21.247Z,76.43
2024-03-01T09:59:08.131Z,75.82
2024-03-01T10:01:48.417Z,75.87
2024-03-01T10:04:34.039Z,75.44
2024-03-01T10:07:26.707Z,75.42
2024-03-01T10:10:28.067Z,75.22
2024-03-01T10:13:12.351Z,75.05
2024-03-01T10:16:01.897Z,74.82
2024-03-01T10:18:51.266Z,74.60
2024-03-01T10:21:38.677Z,74.62
2024-03-01T10:24:31.363Z,74.45
2024-03-01T10:27:15.911Z,73.97
2024-03-01T10:30:06.937Z,73.79
2024-03-01T10:32:54.137Z,73.45
2024-03-01T10:35:35.402Z,73.31
2024-03-01T10:38:23.948Z,73.08
2024-03-01T10:41:11.850Z,72.37
2024-03-01T10:44:05.846Z,72.27
2024-03-01T10:46:46.492Z,71.86
2024-03-01T10:49:28.766Z,71.79
2024-03-01T10:52:12.465Z,71.99
2024-03-01T10:54:53.555Z,71.97
2024-03-01T10:57:31.123Z,72.13
2024-03-01T11:00:14.511Z,71.73
2024-03-01T11:02:51.049Z,71.41
2024-03-01T11:05:32.768Z,71.52
2024-03-01T11:08:27.400Z,71.60
2024-03-01T11:11:12.640Z,71.28
2024-03-01T11:13:51.859Z,70.98
2024-03-01T11:16:33.838Z,70.65
2024-03-01T11:19:16.302Z,70.63
2024-03-01T11:22:00.563Z,70.62
2024-03-01T11:24:45.710Z,70.03
2024-03-01T11:27:30.493Z,69.64
2024-03-01T11:30:11.762Z,69.12
2024-03-01T11:32:50.687Z,69.06
2024-03-01T11:35:34.564Z,69.21
2024-03-01T11:38:22.742Z,68.60
2024-03-01T11:41:16.411Z,68.87
2024-03-01T11:44:10.209Z,68.69
2024-03-01T11:47:07.893Z,68.72
2024-03-01T11:50:30.500Z,68.70
2024-03-01T11:53:29.320Z,68.72
2024-03-01T11:56:40.993Z,68.90
2024-03-01T11:59:32.018Z,68.52
2024-03-01T12:02:20.224Z,67.82
2024-03-01T12:05:09.442Z,67.81
2024-03-01T12:08:12.968Z,68.14
2024-03-01T12:11:01.341Z,67.93
2024-03-01T12:13:48.379Z,67.42
2024-03-01T12:16:35.958Z,67.02
2024-03-01T12:19:19.823Z,67.35
2024-03-01T12:22:15.642Z,67.44
2024-03-01T12:24:50.608Z,67.44
2024-03-01T12:27:38.170Z,67.68
2024-03-01T12:30:29.170Z,67.54
2024-03-01T12:33:18.971Z,67.42
2024-03-01T12:36:06.362Z,67.58
2024-03-01T12:38:47.193Z,67.60
2024-03-01T12:41:52.360Z,67.96
2024-03-01T12:44:41.521Z,68.00
2024-03-01T12:47:41.803Z,67.79
2024-03-01T12:50:26.739Z,67.86
2024-03-01T12:53:17.306Z,67.81
2024-03-01T12:56:06.161Z,67.91
2024-03-01T12:59:01.925Z,67.97
2024-03-01T13:01:47.308Z,68.30
2024-03-01T13:04:38.677Z,68.49
2024-03-01T13:07:18.893Z,68.36
2024-03-01T13:09:57.075Z,68.54
2024-03-01T13:12:35.769Z,68.83
2024-03-01T13:15:20.042Z,69.00
2024-03-01T13:18:09.514Z,69.15
2024-03-01T13:20:56.621Z,69.60
2024-03-01T13:23:48.935Z,69.95
2024-03-01T13:26:40.057Z,70.21
2024-03-01T13:29:21.120Z,70.38
2024-03-01T13:32:10.485Z,70.64
2024-03-01T13:34:55.077Z,70.91
2024-03-01T13:37:39.167Z,70.80
2024-03-01T13:40:23.951Z,70.90
2024-03-01T13:43:07.454Z,71.01
2024-03-01T13:45:48.639Z,71.12
2024-03-01T13:48:30.635Z,71.15
2024-03-01T13:51:09.901Z,71.24
2024-03-01T13:53:50.877Z,71.34
2024-03-01T13:56:31.008Z,71.39
2024-03-01T13:59:08.552Z,71.41
2024-03-01T14:01:46.279Z,71.07
2024-03-01T14:04:23.198Z,70.91
2024-03-01T14:07:00.066Z,71.08
2024-03-01T14:09:37.275Z,71.22
2024-03-01T14:12:15.792Z,70.99
2024-03-01T14:14:52.907Z,71.04
2024-03-01T14:17:26.697Z,70.89
2024-03-01T14:20:05.178Z,70.88
2024-03-01T14:22:42.098Z,71.08
2024-03-01T14:25:20.237Z,71.05
2024-03-01T14:27:58.964Z,71.03
2024-03-01T14:30:36.411Z,71.21
2024-03-01T14:33:24.464Z,71.15
2024-03-01T14:36:13.377Z,71.16
2024-03-01T14:38:57.663Z,71.20
2024-03-01T14:41:45.978Z,71.22
2024-03-01T14:44:32.185Z,71.20
2024-03-01T14:47:18.069Z,71.17
2024-03-01T14:50:01.225Z,71.24
2024-03-01T14:52:39.639Z,70.91
2024-03-01T14:55:17.610Z,70.48
2024-03-01T14:57:54.291Z,70.40
2024-03-01T15:00:31.461Z,70.25
2024-03-01T15:03:09.349Z,70.13
2024-03-01T15:05:46.493Z,70.18
2024-03-01T15:08:22.820Z,69.96
2024-03-01T15:11:09.743Z,70.07
2024-03-01T15:13:47.151Z,70.31
2024-03-01T15:16:28.432Z,70.37
2024-03-01T15:19:09.400Z,70.50
2024-03-01T15:21:47.879Z,70.45
2024-03-01T15:24:28.316Z,70.39
2024-03-01T15:27:04.924Z,70.52
2024-03-01T15:29:41.523Z,70.63
2024-03-01T15:32:18.210Z,70.67
2024-03-01T15:34:54.831Z,70.62
2024-03-01T15:37:31.746Z,70.68
2024-03-01T15:40:14.024Z,70.84
2024-03-01T15:42:50.887Z,71.10
2024-03-01T15:45:28.058Z,71.33
2024-03-01T15:48:04.983Z,71.47
2024-03-01T15:50:41.761Z,71.37
2024-03-01T15:53:22.793Z,71.46
2024-03-01T15:56:02.396Z,71.52
2024-03-01T15:58:39.223Z,71.57
2024-03-01T16:01:18.270Z,71.49
2024-03-01T16:03:55.198Z,71.87
2024-03-01T16:06:32.301Z,71.76
2024-03-01T16:09:10.502Z,71.63
2024-03-01T16:11:48.215Z,71.88
2024-03-01T16:14:25.018Z,71.77
2024-03-01T16:17:01.781Z,71.70
2024-03-01T16:19:38.510Z,71.57
2024-03-01T16:22:16.340Z,71.81
2024-03-01T16:24:56.264Z,71.68
2024-03-01T16:27:33.011Z,71.78
2024-03-01T16:30:13.120Z,71.71
2024-03-01T16:32:52.492Z,71.92
2024-03-01T16:36:00.520Z,71.80
2024-03-01T16:38:41.332Z,71.79
2024-03-01T16:41:48.154Z,71.69
2024-03-01T16:44:42.890Z,71.97
2024-03-01T16:47:37.320Z,71.85
2024-03-01T16:50:15.903Z,72.11
2024-03-01T16:52:54.224Z,72.03
2024-03-01T16:55:50.714Z,72.06
2024-03-01T16:58:27.835Z,72.23
2024-03-01T17:01:05.579Z,72.32
2024-03-01T17:03:43.593Z,72.49
2024-03-01T17:06:20.325Z,72.45
2024-03-01T17:08:57.390Z,72.62
2024-03-01T17:11:34.644Z,72.60
2024-03-01T17:14:12.781Z,72.72
2024-03-01T17:16:49.989Z,72.68
2024-03-01T17:19:34.805Z,72.84
2024-03-01T17:22:12.521Z,72.88
2024-03-01T17:24:50.935Z,72.97
2024-03-01T17:27:27.623Z,73.04
2024-03-01T17:30:04.857Z,73.17
2024-03-01T17:32:41.571Z,73.19
2024-03-01T17:35:22.094Z,73.44
2024-03-01T17:37:59.820Z,73.47
2024-03-01T17:40:36.825Z,73.50
2024-03-01T17:43:13.736Z,73.55
2024-03-01T17:45:50.484Z,73.61
2024-03-01T17:48:27.212Z,73.72
2024-03-01T17:51:03.937Z,73.77
2024-03-01T17:53:40.638Z,73.81
2024-03-01T17:56:18.160Z,73.80
2024-03-01T17:58:55.658Z,73.77
2024-03-01T18:01:33.146Z,74.06
2024-03-01T18:04:10.359Z,74.15
2024-03-01T18:06:47.315Z,74.13
2024-03-01T18:09:24.093Z,74.22
2024-03-01T18:12:01.048Z,74.41
2024-03-01T18:14:37.765Z,74.53
2024-03-01T18:17:15.730Z,74.56
2024-03-01T18:19:55.725Z,74.70
2024-03-01T18:22:32.733Z,74.64
2024-03-01T18:25:13.083Z,74.69
2024-03-01T18:27:49.600Z,74.78
2024-03-01T18:30:26.524Z,74.95
2024-03-01T18:33:04.412Z,74.93
2024-03-01T18:35:41.074Z,75.01
2024-03-01T18:38:17.860Z,75.05
2024-03-01T18:40:54.741Z,75.29
2024-03-01T18:43:33.317Z,75.16
2024-03-01T18:46:12.305Z,75.32
2024-03-01T18:48:48.876Z,75.56
2024-03-01T18:51:26.386Z,75.48
2024-03-01T18:54:05.053Z,75.66
2024-03-01T18:56:42.030Z,75.85
2024-03-01T18:59:19.908Z,75.71
2024-03-01T19:02:05.008Z,75.91
2024-03-01T19:04:43.178Z,75.78
2024-03-01T19:07:20.877Z,75.92
2024-03-01T19:09:57.671Z,75.78
2024-03-01T19:12:32.061Z,75.90
2024-03-01T19:15:10.663Z,75.96
2024-03-01T19:17:47.551Z,75.99
2024-03-01T19:20:24.647Z,76.32
2024-03-01T19:23:01.425Z,76.26
2024-03-01T19:25:38.701Z,76.39
2024-03-01T19:28:15.530Z,76.52
2024-03-01T19:30:52.263Z,76.38
2024-03-01T19:33:29.362Z,76.58
2024-03-01T19:36:06.536Z,76.49
2024-03-01T19:38:43.443Z,76.63
2024-03-01T19:41:20.507Z,76.65
2024-03-01T19:43:58.089Z,76.71
2024-03-01T19:46:35.209Z,76.85
2024-03-01T19:49:11.960Z,76.89
2024-03-01T19:51:48.702Z,77.01
2024-03-01T19:54:26.114Z,76.88
2024-03-01T19:57:04.633Z,77.17
2024-03-01T19:59:43.360Z,77.17
2024-03-01T20:02:20.109Z,77.34
2024-03-01T20:04:56.974Z,77.27
2024-03-01T20:07:33.543Z,77.21
2024-03-01T20:10:11.090Z,77.32
2024-03-01T20:12:47.808Z,77.24
2024-03-01T20:15:24.683Z,77.35
2024-03-01T20:18:01.301Z,77.51
2024-03-01T20:20:37.826Z,77.42
2024-03-01T20:23:14.517Z,77.59
2024-03-01T20:25:51.440Z,77.60
2024-03-01T20:28:27.864Z,77.64
2024-03-01T20:31:04.331Z,77.62
2024-03-01T20:33:40.913Z,77.63
2024-03-01T20:36:17.783Z,77.64
2024-03-01T20:38:54.218Z,77.60
2024-03-01T20:41:31.153Z,77.36
2024-03-01T20:44:05.248Z,77.48
2024-03-01T20:46:41.998Z,77.42
2024-03-01T20:49:18.606Z,77.42
2024-03-01T20:51:55.847Z,77.47
2024-03-01T20:54:33.658Z,77.61
2024-03-01T20:57:11.241Z,77.74
2024-03-01T20:59:48.057Z,77.66
2024-03-01T21:02:25.215Z,77.58
2024-03-01T21:05:01.962Z,77.80
2024-03-01T21:07:39.704Z,78.01
2024-03-01T21:10:17.177Z,78.18
2024-03-01T21:12:53.908Z,78.14
2024-03-01T21:15:30.420Z,78.05
2024-03-01T21:18:08.344Z,77.99
2024-03-01T21:20:45.103Z,78.21
2024-03-01T21:23:21.936Z,78.09
2024-03-01T21:25:59.295Z,78.13
2024-03-01T21:28:33.036Z,77.95
2024-03-01T21:31:10.020Z,78.11
2024-03-01T21:33:46.813Z,78.12
2024-03-01T21:36:24.466Z,78.22
2024-03-01T21:39:03.195Z,78.14
2024-03-01T21:41:40.124Z,78.21
2024-03-01T21:44:19.254Z,78.06
2024-03-01T21:46:55.840Z,78.10
2024-03-01T21:49:32.506Z,78.20
2024-03-01T21:52:09.779Z,78.19
2024-03-01T21:54:46.411Z,77.99
2024-03-01T21:57:23.175Z,78.19
2024-03-01T21:59:59.841Z,78.33
2024-03-01T22:02:37.592Z,78.32
2024-03-01T22:05:14.915Z,78.54
2024-03-01T22:08:02.689Z,78.62
2024-03-01T22:10:47.533Z,78.65
2024-03-01T22:13:21.086Z,78.64
2024-03-01T22:15:58.041Z,78.76
2024-03-01T22:18:34.788Z,78.83
2024-03-01T22:21:11.754Z,78.99
2024-03-01T22:23:49.378Z,79.03
2024-03-01T22:26:29.132Z,78.99
2024-03-01T22:29:06.219Z,79.07
2024-03-01T22:31:43.041Z,79.13
2024-03-01T22:34:20.761Z,79.13
2024-03-01T22:36:57.565Z,79.18
2024-03-01T22:39:37.361Z,79.24
2024-03-01T22:42:14.347Z,79.33
2024-03-01T22:44:51.343Z,79.45
2024-03-01T22:47:28.890Z,79.55
2024-03-01T22:50:07.213Z,79.54
2024-03-01T22:52:46.332Z,79.60
2024-03-01T22:55:46.130Z,79.78
2024-03-01T22:58:43.624Z,79.74
2024-03-01T23:01:29.295Z,79.92
2024-03-01T23:04:07.400Z,79.98
2024-03-01T23:06:45.128Z,80.07
2024-03-01T23:09:24.204Z,79.93
2024-03-01T23:12:09.139Z,80.12
2024-03-01T23:14:52.422Z,80.22
2024-03-01T23:17:29.236Z,80.33
2024-03-01T23:20:05.761Z,80.40
2024-03-01T23:22:44.534Z,80.40
2024-03-01T23:25:21.270Z,80.40
2024-03-01T23:28:00.372Z,80.39
2024-03-01T23:30:37.281Z,80.45
2024-03-01T23:33:14.745Z,80.41
2024-03-01T23:35:51.529Z,80.40
2024-03-01T23:38:28.234Z,80.36
2024-03-01T23:41:08.918Z,80.43
2024-03-01T23:43:45.450Z,80.40
2024-03-01T23:46:22.533Z,80.40
2024-03-01T23:48:59.814Z,80.29
2024-03-01T23:51:36.530Z,80.37
2024-03-01T23:54:14.036Z,80.40
2024-03-01T23:56:51.073Z,80.39
2024-03-01T23:59:27.598Z,80.44
